createdAt,value
2019-05-13T00:04:33.175Z,0.90
2019-05-13T00:09:34.858Z,1.10
2019-05-13T00:14:36.446Z,1.07
2019-05-13T00:19:38.013Z,0.90
2019-05-13T00:24:39.589Z,0.90
2019-05-13T00:29:41.164Z,0.97
2019-05-13T00:34:44.550Z,0.87
2019-05-13T00:39:46.177Z,0.87
2019-05-13T00:44:47.781Z,1.30
2019-05-13T00:49:49.331Z,1.17
2019-05-13T00:54:53.008Z,0.70
2019-05-13T00:59:54.386Z,1.10
2019-05-13T01:04:56.074Z,0.83
2019-05-13T01:09:57.650Z,1.00
2019-05-13T01:14:59.211Z,0.90
2019-05-13T01:20:00.790Z,1.23
2019-05-13T01:25:03.943Z,0.83
2019-05-13T01:30:06.088Z,0.80
2019-05-13T01:35:07.897Z,1.10
2019-05-13T01:40:09.784Z,1.30
2019-05-13T01:45:13.671Z,0.97
2019-05-13T01:50:15.631Z,1.70
2019-05-13T01:55:17.285Z,1.30
2019-05-13T02:00:19.539Z,0.87
2019-05-13T02:05:21.118Z,1.40
2019-05-13T02:10:41.203Z,1.53
2019-05-13T02:15:45.135Z,1.27
2019-05-13T02:20:46.407Z,1.20
2019-05-13T02:25:47.973Z,1.00
2019-05-13T02:30:49.536Z,1.30
2019-05-13T02:35:53.102Z,1.30
2019-05-13T02:40:54.611Z,1.40
2019-05-13T02:45:56.121Z,2.57
2019-05-13T02:50:57.698Z,1.03
2019-05-13T02:56:02.658Z,1.30
2019-05-13T03:01:03.420Z,1.43
2019-05-13T03:06:05.323Z,1.50
2019-05-13T03:11:06.995Z,1.50
2019-05-13T03:16:17.595Z,1.60
2019-05-13T03:21:22.898Z,1.47
2019-05-13T03:26:23.618Z,2.93
2019-05-13T03:31:26.694Z,1.03
2019-05-13T03:36:28.593Z,1.40
2019-05-13T03:41:32.915Z,1.33
2019-05-13T03:46:37.848Z,1.17
2019-05-13T03:51:42.705Z,1.47
2019-05-13T03:56:43.126Z,1.27
2019-05-13T04:01:44.672Z,1.80
2019-05-13T04:06:46.259Z,1.30
2019-05-13T04:11:47.928Z,1.30
2019-05-13T04:16:53.196Z,1.30
2019-05-13T04:21:54.164Z,1.57
2019-05-13T04:26:55.822Z,2.00
2019-05-13T04:31:57.483Z,2.17
2019-05-13T04:37:02.150Z,1.57
2019-05-13T04:42:02.780Z,1.40
2019-05-13T04:47:04.431Z,1.93
2019-05-13T04:52:06.118Z,1.80
2019-05-13T04:57:07.788Z,2.17
2019-05-13T05:02:54.532Z,2.00
2019-05-13T05:08:17.097Z,1.80
2019-05-13T05:13:56.519Z,1.80
2019-05-13T05:19:43.631Z,1.97
2019-05-13T05:25:03.217Z,2.30
2019-05-13T05:30:23.092Z,1.77
2019-05-13T05:36:01.832Z,1.73
2019-05-13T05:41:04.524Z,1.70
2019-05-13T05:46:06.279Z,1.13
2019-05-13T05:51:09.039Z,1.73
2019-05-13T05:56:14.579Z,1.50
2019-05-13T06:01:17.655Z,1.70
2019-05-13T06:06:22.738Z,1.80
2019-05-13T06:11:23.682Z,1.60
2019-05-13T06:16:25.235Z,1.93
2019-05-13T06:21:26.904Z,1.80
2019-05-13T06:26:28.680Z,1.70
2019-05-13T06:31:32.264Z,1.90
2019-05-13T06:36:34.022Z,2.10
2019-05-13T06:41:35.581Z,1.80
2019-05-13T06:46:37.176Z,2.17
2019-05-13T06:51:38.855Z,2.20
2019-05-13T06:56:42.856Z,2.00
2019-05-13T07:01:44.025Z,1.70
2019-05-13T07:06:45.573Z,1.33
2019-05-13T07:11:47.359Z,2.00
2019-05-13T07:16:49.035Z,1.70
2019-05-13T07:21:52.094Z,1.60
2019-05-13T07:26:54.079Z,1.80
2019-05-13T07:31:55.645Z,1.87
2019-05-13T07:36:57.306Z,1.70
2019-05-13T07:42:02.581Z,1.50
2019-05-13T07:47:03.608Z,1.63
2019-05-13T07:52:05.560Z,1.57
2019-05-13T07:57:07.120Z,1.90
2019-05-13T08:02:08.683Z,1.77
2019-05-13T08:07:12.008Z,1.70
2019-05-13T08:12:14.659Z,2.10
2019-05-13T08:17:16.661Z,1.70
2019-05-13T08:22:18.339Z,1.63
2019-05-13T08:27:21.578Z,1.50
2019-05-13T08:32:23.635Z,2.03
2019-05-13T08:37:25.348Z,1.67
2019-05-13T08:42:26.995Z,1.13
2019-05-13T08:47:28.663Z,1.40
2019-05-13T08:52:31.331Z,1.10
2019-05-13T08:57:33.279Z,1.20
2019-05-13T09:02:34.865Z,1.70
2019-05-13T09:07:36.547Z,1.33
2019-05-13T09:12:40.323Z,1.40
2019-05-13T09:17:42.463Z,1.50
2019-05-13T09:22:44.249Z,1.10
2019-05-13T09:27:45.910Z,1.60
2019-05-13T09:32:47.467Z,1.50
2019-05-13T09:37:51.455Z,1.33
2019-05-13T09:42:55.267Z,1.57
2019-05-13T09:47:56.064Z,1.23
2019-05-13T09:52:57.643Z,1.90
2019-05-13T09:57:59.197Z,1.37
2019-05-13T10:03:02.189Z,1.67
2019-05-13T10:08:04.052Z,1.70
2019-05-13T10:13:11.510Z,1.67
2019-05-13T10:18:09.306Z,1.23
2019-05-13T10:23:12.562Z,1.40
2019-05-13T10:28:14.713Z,1.57
2019-05-13T10:33:16.372Z,1.63
2019-05-13T10:38:18.546Z,1.50
2019-05-13T10:43:31.160Z,1.50
2019-05-13T10:48:23.795Z,1.27
2019-05-13T10:53:25.344Z,1.07
2019-05-13T10:58:26.961Z,1.03
2019-05-13T11:03:28.659Z,1.23
2019-05-13T11:08:33.044Z,1.40
2019-05-13T11:13:50.393Z,1.10
2019-05-13T11:18:37.513Z,1.30
2019-05-13T11:23:39.067Z,1.23
2019-05-13T11:28:42.894Z,1.07
2019-05-13T11:33:44.199Z,1.10
2019-05-13T11:38:45.760Z,1.20
2019-05-13T11:44:08.206Z,1.13
2019-05-13T11:48:51.860Z,1.17
2019-05-13T11:53:53.897Z,1.10
2019-05-13T11:58:55.744Z,1.03
2019-05-13T12:03:57.390Z,1.27
2019-05-13T12:09:02.776Z,1.15
2019-05-13T12:14:02.762Z,1.10
2019-05-13T12:19:05.049Z,1.12
2019-05-13T12:24:10.878Z,1.50
2019-05-13T12:29:17.832Z,1.20
2019-05-13T12:34:13.658Z,0.93
2019-05-13T12:39:15.424Z,1.40
2019-05-13T12:44:16.989Z,1.20
2019-05-13T12:49:18.529Z,1.57
2019-05-13T12:54:23.375Z,1.00
2019-05-13T12:59:23.754Z,0.90
2019-05-13T13:04:25.415Z,0.82
2019-05-13T13:09:26.991Z,0.93
2019-05-13T13:14:36.285Z,1.10
2019-05-13T13:19:33.969Z,0.90
2019-05-13T13:24:35.580Z,0.80
2019-05-13T13:29:37.341Z,0.90
2019-05-13T13:34:38.902Z,0.72
2019-05-13T13:39:43.188Z,0.55
2019-05-13T13:44:43.950Z,0.70
2019-05-13T13:49:45.534Z,0.85
2019-05-13T13:54:47.223Z,0.75
2019-05-13T14:00:16.350Z,0.60
2019-05-13T14:04:54.149Z,0.55
2019-05-13T14:09:55.871Z,0.90
2019-05-13T14:14:57.445Z,0.60
2019-05-13T14:19:59.137Z,0.80
2019-05-13T14:25:00.918Z,0.70
2019-05-13T14:30:02.888Z,0.78
2019-05-13T14:35:08.560Z,1.92
2019-05-13T14:40:08.490Z,0.70
2019-05-13T14:45:12.163Z,0.78
2019-05-13T14:50:13.891Z,0.80
2019-05-13T14:55:15.572Z,0.70
2019-05-13T15:00:17.348Z,0.62
2019-05-13T15:05:19.019Z,0.70
2019-05-13T15:10:21.900Z,0.63
2019-05-13T15:15:23.752Z,0.80
2019-05-13T15:20:25.409Z,0.85
2019-05-13T15:25:27.084Z,0.68
2019-05-13T15:30:28.733Z,1.00
2019-05-13T15:35:32.137Z,0.70
2019-05-13T15:40:33.771Z,1.00
2019-05-13T15:45:35.448Z,0.80
2019-05-13T15:50:37.005Z,1.05
2019-05-13T15:55:38.772Z,0.88
2019-05-13T16:00:41.884Z,0.78
2019-05-13T16:05:43.719Z,0.82
2019-05-13T16:10:45.401Z,0.60
2019-05-13T16:15:47.059Z,0.82
2019-05-13T16:20:48.620Z,0.80
2019-05-13T16:25:52.126Z,1.00
2019-05-13T16:30:53.654Z,0.85
2019-05-13T16:35:55.214Z,0.70
2019-05-13T16:40:56.813Z,0.72
2019-05-13T16:45:58.363Z,0.93
2019-05-13T16:51:00.060Z,1.00
2019-05-13T16:56:02.022Z,0.90
2019-05-13T17:01:03.809Z,0.75
2019-05-13T17:06:05.351Z,1.20
2019-05-13T17:11:06.918Z,0.90
2019-05-13T17:16:08.495Z,1.00
2019-05-13T17:21:10.185Z,0.90
2019-05-13T17:26:11.888Z,0.80
2019-05-13T17:31:13.705Z,0.90
2019-05-13T17:36:15.272Z,0.62
2019-05-13T17:41:16.842Z,0.60
2019-05-13T17:46:18.424Z,0.70
2019-05-13T17:51:22.339Z,0.82
2019-05-13T17:56:23.659Z,0.70
2019-05-13T18:01:25.219Z,0.50
2019-05-13T18:06:26.779Z,0.68
2019-05-13T18:11:28.350Z,0.90
2019-05-13T18:16:32.237Z,0.90
2019-05-13T18:21:33.820Z,0.80
2019-05-13T18:26:35.424Z,0.80
2019-05-13T18:31:36.986Z,1.15
2019-05-13T18:36:38.556Z,3.93
2019-05-13T18:41:41.283Z,1.80
2019-05-13T18:46:43.028Z,1.03
2019-05-13T18:51:44.732Z,0.83
2019-05-13T18:56:46.707Z,0.77
2019-05-13T19:01:48.500Z,1.00
2019-05-13T19:06:51.634Z,0.87
2019-05-13T19:11:53.715Z,1.30
2019-05-13T19:16:55.285Z,1.00
2019-05-13T19:21:56.908Z,1.40
2019-05-13T19:26:58.495Z,2.90
2019-05-13T19:32:01.737Z,3.53
2019-05-13T19:37:03.929Z,3.90
2019-05-13T19:42:05.510Z,2.33
2019-05-13T19:47:07.180Z,2.13
2019-05-13T19:52:08.844Z,2.00
2019-05-13T19:57:11.925Z,1.50
2019-05-13T20:02:13.803Z,1.57
2019-05-13T20:07:15.453Z,1.60
2019-05-13T20:12:17.112Z,1.33
2019-05-13T20:17:18.668Z,1.50
2019-05-13T20:22:20.212Z,2.30
2019-05-13T20:27:21.766Z,1.80
2019-05-13T20:32:23.424Z,1.80
2019-05-13T20:37:24.994Z,1.63
2019-05-13T20:42:26.542Z,1.63
2019-05-13T20:47:28.093Z,1.63
2019-05-13T20:52:31.399Z,1.60
2019-05-13T20:57:33.152Z,1.60
2019-05-13T21:02:34.722Z,1.50
2019-05-13T21:07:36.251Z,1.50
2019-05-13T21:12:37.806Z,1.53
2019-05-13T21:17:39.355Z,1.30
2019-05-13T21:22:42.413Z,1.50
2019-05-13T21:27:44.108Z,1.63
2019-05-13T21:32:45.887Z,1.43
2019-05-13T21:37:47.434Z,1.10
2019-05-13T21:42:48.989Z,1.33
2019-05-13T21:47:50.553Z,1.00
2019-05-13T21:52:52.091Z,1.40
2019-05-13T21:57:53.633Z,1.33
2019-05-13T22:02:55.183Z,1.23
2019-05-13T22:07:56.726Z,0.90
2019-05-13T22:12:58.331Z,0.80
2019-05-13T22:18:01.906Z,0.87
2019-05-13T22:23:03.603Z,1.00
2019-05-13T22:28:05.196Z,1.00
2019-05-13T22:33:06.875Z,1.00
2019-05-13T22:38:08.439Z,1.10
2019-05-13T22:43:12.188Z,1.00
2019-05-13T22:48:14.966Z,1.07
2019-05-13T22:53:16.769Z,0.80
2019-05-13T22:58:18.418Z,1.10
2019-05-13T23:03:20.111Z,0.83
2019-05-13T23:08:21.826Z,1.17
2019-05-13T23:13:23.462Z,0.83
2019-05-13T23:18:25.171Z,0.80
2019-05-13T23:23:26.782Z,0.80
2019-05-13T23:28:28.490Z,0.70
2019-05-13T23:33:31.355Z,0.70
2019-05-13T23:38:33.051Z,0.80
2019-05-13T23:43:34.643Z,0.90
2019-05-13T23:48:36.290Z,0.70
2019-05-13T23:53:37.984Z,0.63
2019-05-13T23:58:41.383Z,0.80
